sensor_id;sensor_type;location;lat;lon;timestamp;P1;durP1;ratioP1;P2;durP2;ratioP2
63217;SDS011;49314;48.278;16.378;2024-03-08T00:02:17;49.50;;;35.25;;
63217;SDS011;49314;48.278;16.378;2024-03-08T00:04:42;46.33;;;35.85;;
63217;SDS011;49314;48.278;16.378;2024-03-08T00:07:08;52.88;;;38.03;;
63217;SDS011;49314;48.278;16.378;2024-03-08T00:09:33;73.00;;;49.40;;
63217;SDS011;49314;48.278;16.378;2024-03-08T00:11:58;49.55;;;37.55;;
63217;SDS011;49314;48.278;16.378;2024-03-08T00:14:24;52.88;;;38.10;;
63217;SDS011;49314;48.278;16.378;2024-03-08T00:16:49;49.83;;;37.33;;
63217;SDS011;49314;48.278;16.378;2024-03-08T00:19:14;47.08;;;36.75;;
63217;SDS011;49314;48.278;16.378;2024-03-08T00:21:39;48.40;;;38.08;;
63217;SDS011;49314;48.278;16.378;2024-03-08T00:24:06;49.20;;;38.63;;
63217;SDS011;49314;48.278;16.378;2024-03-08T00:26:31;48.40;;;37.75;;
63217;SDS011;49314;48.278;16.378;2024-03-08T00:28:58;46.63;;;34.72;;
63217;SDS011;49314;48.278;16.378;2024-03-08T00:31:23;47.97;;;36.45;;
63217;SDS011;49314;48.278;16.378;2024-03-08T00:33:48;43.92;;;34.88;;
63217;SDS011;49314;48.278;16.378;2024-03-08T00:36:14;47.30;;;35.53;;
63217;SDS011;49314;48.278;16.378;2024-03-08T00:38:39;49.25;;;37.50;;
63217;SDS011;49314;48.278;16.378;2024-03-08T00:41:04;45.30;;;37.08;;
63217;SDS011;49314;48.278;16.378;2024-03-08T00:43:30;49.42;;;35.95;;
63217;SDS011;49314;48.278;16.378;2024-03-08T00:45:55;43.00;;;35.10;;
63217;SDS011;49314;48.278;16.378;2024-03-08T00:48:21;48.35;;;35.38;;
63217;SDS011;49314;48.278;16.378;2024-03-08T00:50:46;44.17;;;34.63;;
63217;SDS011;49314;48.278;16.378;2024-03-08T00:53:11;52.03;;;37.67;;
63217;SDS011;49314;48.278;16.378;2024-03-08T00:55:37;46.78;;;37.35;;
63217;SDS011;49314;48.278;16.378;2024-03-08T00:58:03;45.55;;;36.00;;
63217;SDS011;49314;48.278;16.378;2024-03-08T01:00:28;49.47;;;37.95;;
63217;SDS011;49314;48.278;16.378;2024-03-08T01:02:54;48.55;;;37.88;;
63217;SDS011;49314;48.278;16.378;2024-03-08T01:05:19;48.75;;;35.88;;
63217;SDS011;49314;48.278;16.378;2024-03-08T01:07:44;48.05;;;33.78;;
63217;SDS011;49314;48.278;16.378;2024-03-08T01:10:11;49.60;;;38.90;;
63217;SDS011;49314;48.278;16.378;2024-03-08T01:12:37;51.88;;;38.65;;
63217;SDS011;49314;48.278;16.378;2024-03-08T01:15:02;44.97;;;35.33;;
63217;SDS011;49314;48.278;16.378;2024-03-08T01:17:28;44.08;;;34.15;;
63217;SDS011;49314;48.278;16.378;2024-03-08T01:19:53;45.38;;;35.45;;
63217;SDS011;49314;48.278;16.378;2024-03-08T01:22:19;44.03;;;35.78;;
63217;SDS011;49314;48.278;16.378;2024-03-08T01:24:44;47.47;;;36.63;;
63217;SDS011;49314;48.278;16.378;2024-03-08T01:27:10;47.58;;;34.72;;
63217;SDS011;49314;48.278;16.378;2024-03-08T01:29:37;43.72;;;36.40;;
63217;SDS011;49314;48.278;16.378;2024-03-08T01:32:02;48.55;;;36.97;;
63217;SDS011;49314;48.278;16.378;2024-03-08T01:34:27;52.38;;;38.50;;
63217;SDS011;49314;48.278;16.378;2024-03-08T01:36:54;52.60;;;38.38;;
63217;SDS011;49314;48.278;16.378;2024-03-08T01:39:20;46.28;;;36.13;;
63217;SDS011;49314;48.278;16.378;2024-03-08T01:41:47;44.85;;;33.55;;
63217;SDS011;49314;48.278;16.378;2024-03-08T01:44:12;48.80;;;34.33;;
63217;SDS011;49314;48.278;16.378;2024-03-08T01:46:40;50.28;;;37.55;;
63217;SDS011;49314;48.278;16.378;2024-03-08T01:49:06;53.90;;;40.28;;
63217;SDS011;49314;48.278;16.378;2024-03-08T01:51:31;45.38;;;35.55;;
63217;SDS011;49314;48.278;16.378;2024-03-08T01:53:57;49.65;;;37.00;;
63217;SDS011;49314;48.278;16.378;2024-03-08T01:56:23;47.78;;;37.95;;
63217;SDS011;49314;48.278;16.378;2024-03-08T01:58:48;50.42;;;38.00;;
63217;SDS011;49314;48.278;16.378;2024-03-08T02:01:14;48.13;;;37.78;;
63217;SDS011;49314;48.278;16.378;2024-03-08T02:03:40;47.88;;;36.22;;
63217;SDS011;49314;48.278;16.378;2024-03-08T02:06:05;47.25;;;39.38;;
63217;SDS011;49314;48.278;16.378;2024-03-08T02:08:33;54.00;;;37.88;;
63217;SDS011;49314;48.278;16.378;2024-03-08T02:10:59;48.13;;;34.78;;
63217;SDS011;49314;48.278;16.378;2024-03-08T02:13:25;51.28;;;36.88;;
63217;SDS011;49314;48.278;16.378;2024-03-08T02:18:15;49.20;;;39.40;;
63217;SDS011;49314;48.278;16.378;2024-03-08T02:20:42;53.13;;;36.83;;
63217;SDS011;49314;48.278;16.378;2024-03-08T02:23:07;48.45;;;34.78;;
63217;SDS011;49314;48.278;16.378;2024-03-08T02:25:33;51.05;;;37.60;;
63217;SDS011;49314;48.278;16.378;2024-03-08T02:27:58;50.88;;;36.40;;
63217;SDS011;49314;48.278;16.378;2024-03-08T02:30:23;50.40;;;37.30;;
63217;SDS011;49314;48.278;16.378;2024-03-08T02:32:49;47.72;;;35.85;;
63217;SDS011;49314;48.278;16.378;2024-03-08T02:35:14;53.95;;;38.95;;
63217;SDS011;49314;48.278;16.378;2024-03-08T02:37:39;52.50;;;36.25;;
63217;SDS011;49314;48.278;16.378;2024-03-08T02:40:05;47.63;;;38.45;;
63217;SDS011;49314;48.278;16.378;2024-03-08T02:42:30;48.10;;;35.78;;
63217;SDS011;49314;48.278;16.378;2024-03-08T02:44:55;49.35;;;36.88;;
63217;SDS011;49314;48.278;16.378;2024-03-08T02:47:21;50.90;;;36.88;;
63217;SDS011;49314;48.278;16.378;2024-03-08T02:49:46;46.38;;;36.30;;
63217;SDS011;49314;48.278;16.378;2024-03-08T02:52:11;48.50;;;35.40;;
63217;SDS011;49314;48.278;16.378;2024-03-08T02:54:36;50.42;;;38.03;;
63217;SDS011;49314;48.278;16.378;2024-03-08T02:57:02;49.90;;;37.35;;
63217;SDS011;49314;48.278;16.378;2024-03-08T02:59:29;51.58;;;34.55;;
63217;SDS011;49314;48.278;16.378;2024-03-08T03:01:54;48.47;;;36.28;;
63217;SDS011;49314;48.278;16.378;2024-03-08T03:04:19;49.75;;;36.00;;
63217;SDS011;49314;48.278;16.378;2024-03-08T03:06:44;50.45;;;38.88;;
63217;SDS011;49314;48.278;16.378;2024-03-08T03:09:11;53.35;;;39.28;;
63217;SDS011;49314;48.278;16.378;2024-03-08T03:11:36;48.75;;;37.53;;
63217;SDS011;49314;48.278;16.378;2024-03-08T03:14:02;46.50;;;36.58;;
63217;SDS011;49314;48.278;16.378;2024-03-08T03:16:28;49.05;;;36.63;;
63217;SDS011;49314;48.278;16.378;2024-03-08T03:18:53;56.40;;;39.85;;
63217;SDS011;49314;48.278;16.378;2024-03-08T03:21:19;50.55;;;34.65;;
63217;SDS011;49314;48.278;16.378;2024-03-08T03:23:44;88.22;;;49.10;;
63217;SDS011;49314;48.278;16.378;2024-03-08T03:26:09;53.47;;;37.00;;
63217;SDS011;49314;48.278;16.378;2024-03-08T03:28:38;51.60;;;35.65;;
63217;SDS011;49314;48.278;16.378;2024-03-08T03:31:07;56.95;;;37.17;;
63217;SDS011;49314;48.278;16.378;2024-03-08T03:33:32;47.30;;;35.85;;
63217;SDS011;49314;48.278;16.378;2024-03-08T03:35:59;54.15;;;39.20;;
63217;SDS011;49314;48.278;16.378;2024-03-08T03:38:24;49.67;;;34.70;;
63217;SDS011;49314;48.278;16.378;2024-03-08T03:40:51;47.75;;;36.20;;
63217;SDS011;49314;48.278;16.378;2024-03-08T03:43:21;51.05;;;38.03;;
63217;SDS011;49314;48.278;16.378;2024-03-08T03:45:46;47.50;;;37.10;;
63217;SDS011;49314;48.278;16.378;2024-03-08T03:48:12;45.17;;;33.25;;
63217;SDS011;49314;48.278;16.378;2024-03-08T03:50:37;48.25;;;37.15;;
63217;SDS011;49314;48.278;16.378;2024-03-08T03:53:03;51.75;;;38.53;;
63217;SDS011;49314;48.278;16.378;2024-03-08T03:55:29;46.53;;;34.85;;
63217;SDS011;49314;48.278;16.378;2024-03-08T03:57:54;46.60;;;35.90;;
63217;SDS011;49314;48.278;16.378;2024-03-08T04:00:20;49.80;;;38.08;;
63217;SDS011;49314;48.278;16.378;2024-03-08T04:02:45;47.17;;;37.83;;
63217;SDS011;49314;48.278;16.378;2024-03-08T04:05:11;46.70;;;37.40;;
63217;SDS011;49314;48.278;16.378;2024-03-08T04:07:37;47.90;;;37.00;;
63217;SDS011;49314;48.278;16.378;2024-03-08T04:10:03;47.92;;;36.38;;
63217;SDS011;49314;48.278;16.378;2024-03-08T04:12:28;45.92;;;36.72;;
63217;SDS011;49314;48.278;16.378;2024-03-08T04:14:57;48.92;;;34.08;;
63217;SDS011;49314;48.278;16.378;2024-03-08T04:17:22;47.85;;;36.55;;
63217;SDS011;49314;48.278;16.378;2024-03-08T04:19:49;45.63;;;36.17;;
63217;SDS011;49314;48.278;16.378;2024-03-08T04:22:14;48.33;;;38.22;;
63217;SDS011;49314;48.278;16.378;2024-03-08T04:24:39;49.30;;;35.85;;
63217;SDS011;49314;48.278;16.378;2024-03-08T04:27:06;45.85;;;36.35;;
63217;SDS011;49314;48.278;16.378;2024-03-08T04:29:31;47.15;;;37.25;;
63217;SDS011;49314;48.278;16.378;2024-03-08T04:31:57;48.65;;;35.92;;
63217;SDS011;49314;48.278;16.378;2024-03-08T04:34:23;45.80;;;35.72;;
63217;SDS011;49314;48.278;16.378;2024-03-08T04:36:49;50.53;;;39.42;;
63217;SDS011;49314;48.278;16.378;2024-03-08T04:39:14;45.50;;;35.28;;
63217;SDS011;49314;48.278;16.378;2024-03-08T04:41:40;46.60;;;35.90;;
63217;SDS011;49314;48.278;16.378;2024-03-08T04:44:07;48.75;;;35.15;;
63217;SDS011;49314;48.278;16.378;2024-03-08T04:46:32;44.90;;;34.90;;
63217;SDS011;49314;48.278;16.378;2024-03-08T04:48:58;47.22;;;34.67;;
63217;SDS011;49314;48.278;16.378;2024-03-08T04:51:24;47.53;;;36.03;;
63217;SDS011;49314;48.278;16.378;2024-03-08T04:53:50;44.30;;;34.75;;
63217;SDS011;49314;48.278;16.378;2024-03-08T04:56:15;52.30;;;38.42;;
63217;SDS011;49314;48.278;16.378;2024-03-08T04:58:41;49.38;;;37.35;;
63217;SDS011;49314;48.278;16.378;2024-03-08T05:01:06;49.67;;;37.42;;
63217;SDS011;49314;48.278;16.378;2024-03-08T05:03:35;49.13;;;37.28;;
63217;SDS011;49314;48.278;16.378;2024-03-08T05:06:00;46.42;;;37.67;;
63217;SDS011;49314;48.278;16.378;2024-03-08T05:08:25;48.25;;;37.45;;
63217;SDS011;49314;48.278;16.378;2024-03-08T05:10:51;47.08;;;36.75;;
63217;SDS011;49314;48.278;16.378;2024-03-08T05:13:16;47.00;;;36.05;;
63217;SDS011;49314;48.278;16.378;2024-03-08T05:15:41;50.70;;;39.20;;
63217;SDS011;49314;48.278;16.378;2024-03-08T05:18:07;46.70;;;37.67;;
63217;SDS011;49314;48.278;16.378;2024-03-08T05:20:33;46.17;;;33.83;;
63217;SDS011;49314;48.278;16.378;2024-03-08T05:22:58;44.15;;;35.72;;
63217;SDS011;49314;48.278;16.378;2024-03-08T05:25:25;49.30;;;35.47;;
63217;SDS011;49314;48.278;16.378;2024-03-08T05:27:51;44.85;;;35.33;;
63217;SDS011;49314;48.278;16.378;2024-03-08T05:30:16;45.38;;;34.55;;
63217;SDS011;49314;48.278;16.378;2024-03-08T05:32:42;46.30;;;37.10;;
63217;SDS011;49314;48.278;16.378;2024-03-08T05:35:10;46.80;;;37.83;;
63217;SDS011;49314;48.278;16.378;2024-03-08T05:37:35;48.67;;;38.20;;
63217;SDS011;49314;48.278;16.378;2024-03-08T05:40:01;46.75;;;35.30;;
63217;SDS011;49314;48.278;16.378;2024-03-08T05:42:26;42.65;;;35.60;;
63217;SDS011;49314;48.278;16.378;2024-03-08T05:44:53;49.47;;;36.47;;
63217;SDS011;49314;48.278;16.378;2024-03-08T05:47:20;49.08;;;36.30;;
63217;SDS011;49314;48.278;16.378;2024-03-08T05:49:45;45.28;;;34.83;;
63217;SDS011;49314;48.278;16.378;2024-03-08T05:52:10;48.65;;;36.65;;
63217;SDS011;49314;48.278;16.378;2024-03-08T05:54:36;47.63;;;35.65;;
63217;SDS011;49314;48.278;16.378;2024-03-08T05:57:01;45.83;;;34.08;;
63217;SDS011;49314;48.278;16.378;2024-03-08T05:59:27;48.08;;;35.33;;
63217;SDS011;49314;48.278;16.378;2024-03-08T06:01:53;42.75;;;34.17;;
63217;SDS011;49314;48.278;16.378;2024-03-08T06:04:18;42.88;;;33.72;;
63217;SDS011;49314;48.278;16.378;2024-03-08T06:06:43;44.20;;;34.53;;
63217;SDS011;49314;48.278;16.378;2024-03-08T06:09:08;47.10;;;35.78;;
63217;SDS011;49314;48.278;16.378;2024-03-08T06:11:36;42.75;;;33.88;;
63217;SDS011;49314;48.278;16.378;2024-03-08T06:14:02;48.33;;;35.70;;
63217;SDS011;49314;48.278;16.378;2024-03-08T06:16:27;51.58;;;36.92;;
63217;SDS011;49314;48.278;16.378;2024-03-08T06:18:56;49.55;;;35.38;;
63217;SDS011;49314;48.278;16.378;2024-03-08T06:21:22;48.00;;;35.95;;
63217;SDS011;49314;48.278;16.378;2024-03-08T06:23:47;48.55;;;36.38;;
63217;SDS011;49314;48.278;16.378;2024-03-08T06:26:13;45.08;;;35.92;;
63217;SDS011;49314;48.278;16.378;2024-03-08T06:28:38;50.60;;;36.17;;
63217;SDS011;49314;48.278;16.378;2024-03-08T06:31:03;47.65;;;35.85;;
63217;SDS011;49314;48.278;16.378;2024-03-08T06:33:29;46.33;;;36.83;;
63217;SDS011;49314;48.278;16.378;2024-03-08T06:35:54;46.83;;;36.47;;
63217;SDS011;49314;48.278;16.378;2024-03-08T06:38:22;44.30;;;34.42;;
63217;SDS011;49314;48.278;16.378;2024-03-08T06:40:47;43.30;;;36.90;;
63217;SDS011;49314;48.278;16.378;2024-03-08T06:43:13;46.40;;;35.45;;
63217;SDS011;49314;48.278;16.378;2024-03-08T06:45:41;46.88;;;34.60;;
63217;SDS011;49314;48.278;16.378;2024-03-08T06:48:06;48.35;;;38.22;;
63217;SDS011;49314;48.278;16.378;2024-03-08T06:50:34;46.42;;;33.60;;
63217;SDS011;49314;48.278;16.378;2024-03-08T06:53:01;45.97;;;35.17;;
63217;SDS011;49314;48.278;16.378;2024-03-08T06:55:28;46.10;;;36.50;;
63217;SDS011;49314;48.278;16.378;2024-03-08T06:57:53;46.47;;;35.70;;
63217;SDS011;49314;48.278;16.378;2024-03-08T07:00:19;43.55;;;34.35;;
63217;SDS011;49314;48.278;16.378;2024-03-08T07:02:46;43.70;;;33.50;;
63217;SDS011;49314;48.278;16.378;2024-03-08T07:05:11;50.95;;;36.00;;
63217;SDS011;49314;48.278;16.378;2024-03-08T07:07:36;45.58;;;36.22;;
63217;SDS011;49314;48.278;16.378;2024-03-08T07:10:02;48.72;;;36.38;;
63217;SDS011;49314;48.278;16.378;2024-03-08T07:12:27;44.70;;;35.28;;
63217;SDS011;49314;48.278;16.378;2024-03-08T07:14:53;47.33;;;36.88;;
63217;SDS011;49314;48.278;16.378;2024-03-08T07:17:18;42.15;;;34.47;;
63217;SDS011;49314;48.278;16.378;2024-03-08T07:19:43;43.72;;;33.88;;
63217;SDS011;49314;48.278;16.378;2024-03-08T07:22:09;42.67;;;34.83;;
63217;SDS011;49314;48.278;16.378;2024-03-08T07:24:37;41.92;;;34.58;;
63217;SDS011;49314;48.278;16.378;2024-03-08T07:27:05;44.35;;;35.55;;
63217;SDS011;49314;48.278;16.378;2024-03-08T07:29:31;44.70;;;33.15;;
63217;SDS011;49314;48.278;16.378;2024-03-08T07:31:56;42.67;;;35.25;;
63217;SDS011;49314;48.278;16.378;2024-03-08T07:34:42;45.38;;;34.28;;
63217;SDS011;49314;48.278;16.378;2024-03-08T07:37:07;47.10;;;35.78;;
63217;SDS011;49314;48.278;16.378;2024-03-08T07:39:36;40.00;;;33.45;;
63217;SDS011;49314;48.278;16.378;2024-03-08T07:42:01;40.85;;;34.15;;
63217;SDS011;49314;48.278;16.378;2024-03-08T07:44:26;43.33;;;35.60;;
63217;SDS011;49314;48.278;16.378;2024-03-08T07:46:52;43.45;;;32.45;;
63217;SDS011;49314;48.278;16.378;2024-03-08T07:49:17;40.67;;;35.30;;
63217;SDS011;49314;48.278;16.378;2024-03-08T07:51:43;44.38;;;34.78;;
63217;SDS011;49314;48.278;16.378;2024-03-08T07:54:08;44.88;;;35.38;;
63217;SDS011;49314;48.278;16.378;2024-03-08T07:56:34;48.17;;;34.47;;
63217;SDS011;49314;48.278;16.378;2024-03-08T07:59:01;45.75;;;35.92;;
63217;SDS011;49314;48.278;16.378;2024-03-08T08:01:28;43.13;;;35.08;;
63217;SDS011;49314;48.278;16.378;2024-03-08T08:03:54;45.03;;;34.38;;
63217;SDS011;49314;48.278;16.378;2024-03-08T08:06:19;40.78;;;33.78;;
63217;SDS011;49314;48.278;16.378;2024-03-08T08:08:44;45.28;;;33.88;;
63217;SDS011;49314;48.278;16.378;2024-03-08T08:11:10;46.78;;;34.33;;
63217;SDS011;49314;48.278;16.378;2024-03-08T08:13:36;46.65;;;35.63;;
63217;SDS011;49314;48.278;16.378;2024-03-08T08:16:02;45.17;;;33.30;;
63217;SDS011;49314;48.278;16.378;2024-03-08T08:18:27;40.17;;;33.75;;
63217;SDS011;49314;48.278;16.378;2024-03-08T08:20:54;44.35;;;36.40;;
63217;SDS011;49314;48.278;16.378;2024-03-08T08:23:19;42.17;;;33.97;;
63217;SDS011;49314;48.278;16.378;2024-03-08T08:25:45;41.72;;;33.67;;
63217;SDS011;49314;48.278;16.378;2024-03-08T08:28:10;45.22;;;34.72;;
63217;SDS011;49314;48.278;16.378;2024-03-08T08:30:37;41.95;;;32.70;;
63217;SDS011;49314;48.278;16.378;2024-03-08T08:33:02;44.15;;;32.85;;
63217;SDS011;49314;48.278;16.378;2024-03-08T08:35:30;45.75;;;35.22;;
63217;SDS011;49314;48.278;16.378;2024-03-08T08:37:55;45.78;;;36.20;;
63217;SDS011;49314;48.278;16.378;2024-03-08T08:40:21;44.92;;;32.92;;
63217;SDS011;49314;48.278;16.378;2024-03-08T08:42:47;43.17;;;35.15;;
63217;SDS011;49314;48.278;16.378;2024-03-08T08:45:13;44.95;;;33.35;;
63217;SDS011;49314;48.278;16.378;2024-03-08T08:47:38;41.03;;;32.55;;
63217;SDS011;49314;48.278;16.378;2024-03-08T08:50:07;40.95;;;34.63;;
63217;SDS011;49314;48.278;16.378;2024-03-08T08:52:32;41.67;;;32.17;;
63217;SDS011;49314;48.278;16.378;2024-03-08T08:54:57;46.13;;;35.17;;
63217;SDS011;49314;48.278;16.378;2024-03-08T08:57:23;43.90;;;33.72;;
63217;SDS011;49314;48.278;16.378;2024-03-08T08:59:48;53.63;;;37.38;;
63217;SDS011;49314;48.278;16.378;2024-03-08T09:02:13;55.90;;;41.05;;
63217;SDS011;49314;48.278;16.378;2024-03-08T09:04:39;45.83;;;35.25;;
63217;SDS011;49314;48.278;16.378;2024-03-08T09:07:04;47.97;;;34.28;;
63217;SDS011;49314;48.278;16.378;2024-03-08T09:09:31;51.28;;;37.63;;
63217;SDS011;49314;48.278;16.378;2024-03-08T09:11:57;52.15;;;37.38;;
63217;SDS011;49314;48.278;16.378;2024-03-08T09:14:22;51.40;;;36.55;;
63217;SDS011;49314;48.278;16.378;2024-03-08T09:16:47;47.58;;;35.25;;
63217;SDS011;49314;48.278;16.378;2024-03-08T09:19:13;54.00;;;34.28;;
63217;SDS011;49314;48.278;16.378;2024-03-08T09:21:38;49.15;;;37.17;;
63217;SDS011;49314;48.278;16.378;2024-03-08T09:24:05;51.33;;;38.33;;
63217;SDS011;49314;48.278;16.378;2024-03-08T09:26:31;51.50;;;36.20;;
63217;SDS011;49314;48.278;16.378;2024-03-08T09:28:58;52.80;;;36.10;;
63217;SDS011;49314;48.278;16.378;2024-03-08T09:31:23;49.88;;;35.30;;
63217;SDS011;49314;48.278;16.378;2024-03-08T09:33:48;48.40;;;33.92;;
63217;SDS011;49314;48.278;16.378;2024-03-08T09:36:14;47.53;;;33.55;;
63217;SDS011;49314;48.278;16.378;2024-03-08T09:38:39;46.63;;;33.40;;
63217;SDS011;49314;48.278;16.378;2024-03-08T09:41:05;50.53;;;34.92;;
63217;SDS011;49314;48.278;16.378;2024-03-08T09:43:30;50.00;;;34.00;;
63217;SDS011;49314;48.278;16.378;2024-03-08T09:45:56;53.05;;;36.15;;
63217;SDS011;49314;48.278;16.378;2024-03-08T09:48:22;54.30;;;37.60;;
63217;SDS011;49314;48.278;16.378;2024-03-08T09:50:48;51.97;;;34.70;;
63217;SDS011;49314;48.278;16.378;2024-03-08T09:53:13;53.33;;;38.08;;
63217;SDS011;49314;48.278;16.378;2024-03-08T09:55:38;47.88;;;35.05;;
63217;SDS011;49314;48.278;16.378;2024-03-08T09:58:10;47.22;;;36.70;;
63217;SDS011;49314;48.278;16.378;2024-03-08T10:00:54;49.65;;;37.67;;
63217;SDS011;49314;48.278;16.378;2024-03-08T10:03:22;52.30;;;38.70;;
63217;SDS011;49314;48.278;16.378;2024-03-08T10:05:47;50.35;;;37.20;;
63217;SDS011;49314;48.278;16.378;2024-03-08T10:08:12;50.22;;;35.28;;
63217;SDS011;49314;48.278;16.378;2024-03-08T10:10:38;52.53;;;37.28;;
63217;SDS011;49314;48.278;16.378;2024-03-08T10:13:06;53.42;;;38.47;;
63217;SDS011;49314;48.278;16.378;2024-03-08T10:15:32;53.15;;;38.78;;
63217;SDS011;49314;48.278;16.378;2024-03-08T10:18:00;51.85;;;39.10;;
63217;SDS011;49314;48.278;16.378;2024-03-08T10:20:27;45.97;;;33.88;;
63217;SDS011;49314;48.278;16.378;2024-03-08T10:22:53;51.13;;;36.60;;
63217;SDS011;49314;48.278;16.378;2024-03-08T10:25:19;49.85;;;38.45;;
63217;SDS011;49314;48.278;16.378;2024-03-08T10:27:44;43.85;;;35.72;;
63217;SDS011;49314;48.278;16.378;2024-03-08T10:30:10;55.00;;;36.95;;
63217;SDS011;49314;48.278;16.378;2024-03-08T10:32:37;52.10;;;37.72;;
63217;SDS011;49314;48.278;16.378;2024-03-08T10:35:03;44.25;;;34.28;;
63217;SDS011;49314;48.278;16.378;2024-03-08T10:37:28;40.60;;;32.00;;
63217;SDS011;49314;48.278;16.378;2024-03-08T10:40:36;41.50;;;33.83;;
63217;SDS011;49314;48.278;16.378;2024-03-08T10:42:53;45.30;;;32.50;;
63217;SDS011;49314;48.278;16.378;2024-03-08T10:45:40;46.65;;;39.67;;
63217;SDS011;49314;48.278;16.378;2024-03-08T10:50:53;45.65;;;37.05;;
63217;SDS011;49314;48.278;16.378;2024-03-08T10:53:18;52.33;;;46.47;;
63217;SDS011;49314;48.278;16.378;2024-03-08T10:55:46;36.70;;;28.67;;
63217;SDS011;49314;48.278;16.378;2024-03-08T10:58:12;40.78;;;35.90;;
63217;SDS011;49314;48.278;16.378;2024-03-08T11:00:37;40.33;;;32.13;;
63217;SDS011;49314;48.278;16.378;2024-03-08T11:03:03;33.30;;;26.17;;
63217;SDS011;49314;48.278;16.378;2024-03-08T11:08:06;40.45;;;34.03;;
63217;SDS011;49314;48.278;16.378;2024-03-08T11:10:50;37.97;;;30.50;;
63217;SDS011;49314;48.278;16.378;2024-03-08T11:16:09;31.55;;;26.98;;
63217;SDS011;49314;48.278;16.378;2024-03-08T11:18:35;36.13;;;27.23;;
63217;SDS011;49314;48.278;16.378;2024-03-08T11:21:03;34.15;;;26.05;;
63217;SDS011;49314;48.278;16.378;2024-03-08T11:23:32;29.48;;;24.55;;
63217;SDS011;49314;48.278;16.378;2024-03-08T11:25:58;34.35;;;29.67;;
63217;SDS011;49314;48.278;16.378;2024-03-08T11:28:24;34.17;;;27.10;;
63217;SDS011;49314;48.278;16.378;2024-03-08T11:33:34;32.00;;;25.23;;
63217;SDS011;49314;48.278;16.378;2024-03-08T11:38:24;38.38;;;31.25;;
63217;SDS011;49314;48.278;16.378;2024-03-08T11:40:50;33.47;;;27.08;;
63217;SDS011;49314;48.278;16.378;2024-03-08T11:43:15;31.38;;;25.42;;
63217;SDS011;49314;48.278;16.378;2024-03-08T11:45:41;34.95;;;27.92;;
63217;SDS011;49314;48.278;16.378;2024-03-08T11:48:06;32.65;;;27.20;;
63217;SDS011;49314;48.278;16.378;2024-03-08T11:50:31;37.60;;;25.90;;
63217;SDS011;49314;48.278;16.378;2024-03-08T11:53:03;30.40;;;24.85;;
63217;SDS011;49314;48.278;16.378;2024-03-08T11:55:29;28.42;;;22.92;;
63217;SDS011;49314;48.278;16.378;2024-03-08T11:58:04;25.00;;;20.25;;
63217;SDS011;49314;48.278;16.378;2024-03-08T12:00:30;23.80;;;19.08;;
63217;SDS011;49314;48.278;16.378;2024-03-08T12:05:28;22.15;;;17.55;;
63217;SDS011;49314;48.278;16.378;2024-03-08T12:07:59;20.30;;;18.13;;
63217;SDS011;49314;48.278;16.378;2024-03-08T12:10:24;21.25;;;17.38;;
63217;SDS011;49314;48.278;16.378;2024-03-08T12:12:53;17.42;;;13.95;;
63217;SDS011;49314;48.278;16.378;2024-03-08T12:15:19;16.05;;;14.38;;
63217;SDS011;49314;48.278;16.378;2024-03-08T12:17:46;16.08;;;14.13;;
63217;SDS011;49314;48.278;16.378;2024-03-08T12:20:19;15.25;;;13.40;;
63217;SDS011;49314;48.278;16.378;2024-03-08T12:22:46;14.65;;;13.05;;
63217;SDS011;49314;48.278;16.378;2024-03-08T12:25:12;15.55;;;13.98;;
63217;SDS011;49314;48.278;16.378;2024-03-08T12:27:40;17.92;;;14.43;;
63217;SDS011;49314;48.278;16.378;2024-03-08T12:30:16;17.48;;;15.73;;
63217;SDS011;49314;48.278;16.378;2024-03-08T12:32:46;15.65;;;14.15;;
63217;SDS011;49314;48.278;16.378;2024-03-08T12:35:12;17.80;;;16.00;;
63217;SDS011;49314;48.278;16.378;2024-03-08T12:37:38;14.85;;;12.20;;
63217;SDS011;49314;48.278;16.378;2024-03-08T12:40:06;16.30;;;14.63;;
63217;SDS011;49314;48.278;16.378;2024-03-08T12:42:32;13.65;;;12.07;;
63217;SDS011;49314;48.278;16.378;2024-03-08T12:44:57;15.85;;;13.55;;
63217;SDS011;49314;48.278;16.378;2024-03-08T12:47:24;16.05;;;13.50;;
63217;SDS011;49314;48.278;16.378;2024-03-08T12:49:49;15.15;;;13.60;;
63217;SDS011;49314;48.278;16.378;2024-03-08T12:52:15;14.30;;;12.90;;
63217;SDS011;49314;48.278;16.378;2024-03-08T12:54:43;15.13;;;12.85;;
63217;SDS011;49314;48.278;16.378;2024-03-08T12:57:08;13.80;;;12.40;;
63217;SDS011;49314;48.278;16.378;2024-03-08T12:59:34;15.98;;;14.32;;
63217;SDS011;49314;48.278;16.378;2024-03-08T13:01:59;14.40;;;12.25;;
63217;SDS011;49314;48.278;16.378;2024-03-08T13:04:25;13.45;;;12.07;;
63217;SDS011;49314;48.278;16.378;2024-03-08T13:06:50;14.60;;;12.93;;
63217;SDS011;49314;48.278;16.378;2024-03-08T13:09:16;16.23;;;12.82;;
63217;SDS011;49314;48.278;16.378;2024-03-08T13:11:41;14.50;;;12.65;;
63217;SDS011;49314;48.278;16.378;2024-03-08T13:14:08;14.52;;;12.85;;
63217;SDS011;49314;48.278;16.378;2024-03-08T13:16:35;14.85;;;13.40;;
63217;SDS011;49314;48.278;16.378;2024-03-08T13:19:00;14.32;;;12.82;;
63217;SDS011;49314;48.278;16.378;2024-03-08T13:21:26;15.88;;;14.20;;
63217;SDS011;49314;48.278;16.378;2024-03-08T13:23:51;16.40;;;14.68;;
63217;SDS011;49314;48.278;16.378;2024-03-08T13:26:18;34.80;;;31.70;;
63217;SDS011;49314;48.278;16.378;2024-03-08T13:28:46;16.00;;;14.30;;
63217;SDS011;49314;48.278;16.378;2024-03-08T13:31:13;14.45;;;13.13;;
63217;SDS011;49314;48.278;16.378;2024-03-08T13:33:40;14.35;;;13.05;;
63217;SDS011;49314;48.278;16.378;2024-03-08T13:36:07;13.02;;;11.63;;
63217;SDS011;49314;48.278;16.378;2024-03-08T13:38:39;10.57;;;9.48;;
63217;SDS011;49314;48.278;16.378;2024-03-08T13:41:07;11.90;;;10.70;;
63217;SDS011;49314;48.278;16.378;2024-03-08T13:43:32;10.05;;;8.98;;
63217;SDS011;49314;48.278;16.378;2024-03-08T13:45:59;18.10;;;16.17;;
63217;SDS011;49314;48.278;16.378;2024-03-08T13:48:24;12.23;;;10.55;;
63217;SDS011;49314;48.278;16.378;2024-03-08T13:50:49;11.85;;;9.95;;
63217;SDS011;49314;48.278;16.378;2024-03-08T13:53:15;11.57;;;10.35;;
63217;SDS011;49314;48.278;16.378;2024-03-08T13:55:40;12.82;;;11.50;;
63217;SDS011;49314;48.278;16.378;2024-03-08T13:58:06;14.13;;;12.00;;
63217;SDS011;49314;48.278;16.378;2024-03-08T14:00:34;14.32;;;12.93;;
63217;SDS011;49314;48.278;16.378;2024-03-08T14:03:01;33.55;;;28.85;;
63217;SDS011;49314;48.278;16.378;2024-03-08T14:05:30;43.75;;;37.15;;
63217;SDS011;49314;48.278;16.378;2024-03-08T14:07:59;20.13;;;17.70;;
63217;SDS011;49314;48.278;16.378;2024-03-08T14:10:26;13.23;;;11.50;;
63217;SDS011;49314;48.278;16.378;2024-03-08T14:12:52;38.50;;;35.53;;
63217;SDS011;49314;48.278;16.378;2024-03-08T14:15:17;28.27;;;25.98;;
63217;SDS011;49314;48.278;16.378;2024-03-08T14:17:42;17.42;;;15.75;;
63217;SDS011;49314;48.278;16.378;2024-03-08T14:20:10;15.10;;;13.60;;
63217;SDS011;49314;48.278;16.378;2024-03-08T14:22:37;13.00;;;11.70;;